createdAt,value
2023-01-29T05:55:42.394Z,22.50
2023-01-29T05:59:25.133Z,16.30
2023-01-29T06:02:55.613Z,21.80
2023-01-29T06:06:43.566Z,22.50
2023-01-29T06:10:16.800Z,15.40
2023-01-29T06:13:55.604Z,17.90
2023-01-29T06:17:52.562Z,11.90
2023-01-29T06:21:30.556Z,12.20
2023-01-29T06:29:07.537Z,12.80
2023-01-29T06:41:07.537Z,15.60
2023-01-29T06:44:49.628Z,18.50
2023-01-29T06:56:14.196Z,17.30
2023-01-29T07:00:02.258Z,13.30
2023-01-29T07:03:51.517Z,17.40
2023-01-29T07:11:21.578Z,10.40
2023-01-29T07:15:51.626Z,9.90
2023-01-29T07:19:28.632Z,17.90
2023-01-29T07:26:57.310Z,17.70
2023-01-29T07:30:40.893Z,13.00
2023-01-29T07:34:32.516Z,16.10
2023-01-29T07:42:04.677Z,20.00
2023-01-29T07:49:46.610Z,13.00
2023-01-29T08:04:48.831Z,12.10
2023-01-29T08:08:28.615Z,19.70
2023-01-29T08:12:22.563Z,17.60
2023-01-29T08:16:00.632Z,13.80
2023-01-29T08:19:52.675Z,15.10
2023-01-29T08:23:49.850Z,23.60
2023-01-29T08:27:24.746Z,17.70
2023-01-29T08:31:10.795Z,21.40
2023-01-29T08:35:04.883Z,10.30
2023-01-29T08:51:09.842Z,22.00
2023-01-29T09:07:00.717Z,17.70
2023-01-29T09:11:08.636Z,23.50
2023-01-29T09:19:03.659Z,19.60
2023-01-29T09:23:02.663Z,10.20
2023-01-29T09:27:05.953Z,17.50
2023-01-29T09:35:34.447Z,14.70
2023-01-29T09:39:32.805Z,23.50
2023-01-29T13:51:51.699Z,17.90
2023-01-29T13:56:08.619Z,16.00
2023-01-29T14:00:22.403Z,19.20
2023-01-29T14:08:17.291Z,17.20
2023-01-29T14:12:16.254Z,21.60
2023-01-29T14:16:06.153Z,22.50
2023-01-29T14:19:46.073Z,19.50
2023-01-29T14:23:23.183Z,28.60
2023-01-29T14:30:39.520Z,29.30
2023-01-29T14:34:25.046Z,23.20
2023-01-29T14:42:55.363Z,27.50
2023-01-29T14:46:59.536Z,19.80
2023-01-29T14:51:10.467Z,26.90
2023-01-29T14:54:52.599Z,32.90
2023-01-29T14:58:39.553Z,26.70
2023-01-29T15:02:22.483Z,27.90
2023-01-29T15:06:12.515Z,35.50
2023-01-29T15:10:18.868Z,34.50
2023-01-29T15:13:43.373Z,35.20
2023-01-29T15:17:39.385Z,32.20
2023-01-29T15:21:18.599Z,29.00
2023-01-29T15:25:15.694Z,29.70
2023-01-29T15:29:07.381Z,31.60
2023-01-29T15:32:55.241Z,36.40
2023-01-29T15:36:42.536Z,25.10
2023-01-29T15:40:23.477Z,29.90
2023-01-29T15:44:04.690Z,30.60
2023-01-29T15:48:05.471Z,25.00
2023-01-29T15:51:51.395Z,31.10
2023-01-29T15:55:43.500Z,12.60
2023-01-29T15:59:36.372Z,33.10
2023-01-29T16:07:54.268Z,31.20
2023-01-29T16:21:12.195Z,29.80
2023-01-29T16:25:50.312Z,35.30
2023-01-29T16:33:51.961Z,33.90
2023-01-29T16:38:05.869Z,30.00
2023-01-29T16:42:36.628Z,35.60
2023-01-29T16:47:04.193Z,33.10
2023-01-29T16:50:54.884Z,33.00
2023-01-29T16:54:58.979Z,21.10
2023-01-29T16:58:29.133Z,26.50
2023-01-29T17:02:18.871Z,27.80
2023-01-29T17:05:50.982Z,27.40
2023-01-29T17:10:17.008Z,29.60
2023-01-29T17:18:03.502Z,22.80
2023-01-29T17:22:14.945Z,29.90
2023-01-29T17:26:44.879Z,21.50
2023-01-29T17:30:33.859Z,15.30
2023-01-29T17:34:45.383Z,16.20
2023-01-29T17:38:46.961Z,18.40
2023-01-29T17:42:30.164Z,20.70
2023-01-29T17:46:13.780Z,22.60
2023-01-29T17:49:59.041Z,14.00
2023-01-29T17:54:14.572Z,14.70
2023-01-29T17:57:57.754Z,13.10
2023-01-29T18:01:36.557Z,14.40
2023-01-29T18:05:38.714Z,11.30
2023-01-29T18:09:29.098Z,16.20
2023-01-29T18:13:23.152Z,11.70
2023-01-29T18:17:29.385Z,13.60
2023-01-29T18:21:29.742Z,10.10
2023-01-29T18:25:21.887Z,16.40
2023-01-29T18:29:30.757Z,11.70
2023-01-29T18:33:01.463Z,10.10
2023-01-29T18:39:38.279Z,13.40
2023-01-29T18:43:32.283Z,12.30
2023-01-29T18:47:31.087Z,13.20
2023-01-29T18:51:23.676Z,11.70
2023-01-29T18:58:27.338Z,16.70
2023-01-29T19:01:36.936Z,15.40
2023-01-29T19:05:26.374Z,18.00
2023-01-29T22:16:27.185Z,17.40
2023-01-29T22:20:36.995Z,14.70
2023-01-29T22:24:37.883Z,15.80
2023-01-29T22:28:36.022Z,15.70
2023-01-29T22:37:10.771Z,14.70
2023-01-29T22:40:43.604Z,16.40
2023-01-29T22:44:39.583Z,16.80
2023-01-29T22:48:47.579Z,12.90
2023-01-29T22:52:31.548Z,14.50
2023-01-29T22:56:38.826Z,15.10
2023-01-29T23:00:42.621Z,14.00
2023-01-29T23:04:24.498Z,15.40
2023-01-29T23:08:12.280Z,16.70
2023-01-29T23:12:06.986Z,12.80
2023-01-29T23:16:16.490Z,12.50
2023-01-29T23:24:03.038Z,14.40
2023-01-29T23:28:03.656Z,14.90
2023-01-29T23:32:15.769Z,15.30
2023-01-29T23:36:28.518Z,14.50
2023-01-29T23:40:19.830Z,9.20
2023-01-29T23:44:20.431Z,14.90
2023-01-29T23:48:08.664Z,7.30
2023-01-29T23:52:10.790Z,12.80
2023-01-29T23:56:17.974Z,14.90
